Flight Track Log - Related Links

Times and Time Zones

All times are in EDT time to prevent confusion due to time zone crossing. See the AM317 flight status page for this flight to view local times or setup timezone preferences in your user account.

Time Position Orientation Groundspeed Altitude Reporting Facility
EDT Latitude Longitude Course Direction KTS MPH feet Rate Location/Type
Sun 01:25:07 AM -36.4020 145.3960 350° North 128 147 1,600  Level FlightAware ADS-B
Sun 01:25:12 AM -36.3990 145.3940 332° Northwest 123 142 1,800 1,600 Climbing FlightAware ADS-B
Sun 01:25:22 AM -36.3960 145.3880 302° West 130 150 2,000 1,200 Climbing FlightAware ADS-B
Sun 01:25:27 AM -36.3960 145.3840 270° West 140 161 2,100 1,800 Climbing FlightAware ADS-B
Sun 01:25:32 AM -36.3970 145.3800 253° West 144 166 2,300 1,500 Climbing FlightAware ADS-B
Sun 01:25:43 AM -36.4020 145.3740 224° Southwest 158 182 2,500 1,500 Climbing FlightAware ADS-B
Sun 01:25:48 AM -36.4060 145.3730 191° South 168 193 2,700 1,714 Climbing FlightAware ADS-B
Sun 01:25:57 AM -36.4150 145.3740 175° South 183 211 2,900 1,714 Climbing FlightAware ADS-B
Sun 01:26:02 AM -36.4190 145.3760 158° South 187 215 3,100 1,800 Climbing FlightAware ADS-B
Sun 01:26:27 AM -36.4380 145.3910 148° Southeast 187 215 3,800 1,600 Climbing FlightAware ADS-B
Sun 01:26:47 AM -36.4550 145.3970 164° South 184 212 4,300 1,650 Climbing FlightAware ADS-B
Sun 01:27:07 AM -36.4730 145.4000 172° South 191 220 4,900 1,500 Climbing FlightAware ADS-B
Sun 01:27:23 AM -36.4860 145.4010 176° South 193 222 5,200 1,500 Climbing FlightAware ADS-B
Sun 01:27:43 AM -36.5040 145.4030 175° South 195 224 5,800 1,846 Climbing FlightAware ADS-B
Sun 01:28:02 AM -36.5210 145.4050 175° South 196 226 6,400 2,154 Climbing FlightAware ADS-B
Sun 01:28:22 AM -36.5400 145.4060 178° South 194 223 7,200 2,488 Climbing FlightAware ADS-B
Sun 01:28:43 AM -36.5570 145.4080 175° South 175 201 8,100 2,533 Climbing FlightAware ADS-B
Sun 01:29:07 AM -36.5770 145.4100 175° South 164 189 9,100 2,204 Climbing FlightAware ADS-B
Sun 01:29:32 AM -36.5970 145.4120 175° South 175 201 9,900 2,000 Climbing FlightAware ADS-B
Sun 01:30:07 AM -36.6250 145.4140 177° South 177 204 11,100 1,886 Climbing FlightAware ADS-B
Sun 01:30:42 AM -36.6560 145.4170 176° South 182 209 12,100 1,520 Climbing FlightAware ADS-B
Sun 01:31:22 AM -36.6910 145.4200 176° South 213 245 13,000 771 Climbing FlightAware ADS-B
Sun 01:31:52 AM -36.7240 145.4230 176° South 243 280 13,000  Level FlightAware ADS-B
Sun 01:32:28 AM -36.7660 145.4280 175° South 268 308 13,000  Level FlightAware ADS-B
Sun 01:33:11 AM -36.8210 145.4330 176° South 262 302 13,000  Level FlightAware ADS-B
Sun 01:33:46 AM -36.8660 145.4380 175° South 272 313 13,000  Level FlightAware ADS-B
Sun 01:34:21 AM -36.9090 145.4420 176° South 261 300 13,000 -273 Level FlightAware ADS-B
Sun 01:34:52 AM -36.9497 145.4453 176° South 267 307 12,700  Descending Aus ATC (RADAR)
Sun 01:34:56 AM -36.9530 145.4460 176° South 258 297 13,000  Climbing FlightAware ADS-B
Sun 01:35:28 AM -36.9933 145.4493 176° South 269 310 12,700  Descending Aus ATC (RADAR)
Sun 01:35:31 AM -36.9950 145.4500 176° South 271 312 13,000 474 Climbing FlightAware ADS-B
Sun 01:36:06 AM -37.0400 145.4540 176° South 275 316 13,000  Level FlightAware ADS-B
Sun 01:36:41 AM -37.0840 145.4580 176° South 273 314 13,000  Level FlightAware ADS-B
Sun 01:37:16 AM -37.1290 145.4630 175° South 273 314 13,000 -273 Level FlightAware ADS-B
Sun 01:37:47 AM -37.1704 145.4663 175° South 275 316 12,700  Descending Aus ATC (RADAR)
Sun 01:37:51 AM -37.1730 145.4670 175° South 278 320 13,000 947 Climbing FlightAware ADS-B
Sun 01:38:06 AM -37.1920 145.4760 159° South 294 338 13,000  Level FlightAware ADS-B
Sun 01:38:36 AM -37.2240 145.5120 138° Southeast 305 351 13,000  Level FlightAware ADS-B
Sun 01:39:16 AM -37.2640 145.5580 138° Southeast 297 342 13,000 -160 Level FlightAware ADS-B
Sun 01:39:51 AM -37.3020 145.6020 137° Southeast 312 359 12,800 -560 Descending FlightAware ADS-B
Sun 01:40:31 AM -37.3460 145.6510 137° Southeast 322 371 12,300 -1,171 Descending FlightAware ADS-B
Sun 01:40:32 AM -37.3482 145.6533 137° Southeast 313 360 12,000 -857 Descending Aus ATC (RADAR)
Sun 01:41:06 AM -37.3850 145.6950 138° Southeast 323 372 11,800 -609 Descending FlightAware ADS-B
Sun 01:41:41 AM -37.4240 145.7370 139° Southeast 316 364 11,300 -771 Descending FlightAware ADS-B
Sun 01:42:16 AM -37.4630 145.7790 139° Southeast 320 368 10,900 -735 Descending FlightAware ADS-B
Sun 01:42:30 AM -37.4810 145.7930 148° Southeast 313 360 10,700 -960 Descending FlightAware ADS-B
Sun 01:42:41 AM -37.4950 145.7960 170° South 288 331 10,500 -706 Descending FlightAware ADS-B
Sun 01:43:21 AM -37.5430 145.7880 188° South 226 260 10,100 -160 Descending FlightAware ADS-B
Sun 01:43:56 AM -37.5760 145.7840 185° South 215 247 10,300 267 Climbing FlightAware ADS-B
Sun 01:44:06 AM -37.5840 145.7810 197° South 193 222 10,300  Level FlightAware ADS-B
Sun 01:44:16 AM -37.5910 145.7750 214° Southwest 179 206 10,300  Level FlightAware ADS-B
Sun 01:44:26 AM -37.5960 145.7640 240° Southwest 163 188 10,300  Level FlightAware ADS-B
Sun 01:44:56 AM -37.6030 145.7380 251° West 155 178 10,300  Level FlightAware ADS-B
Sun 01:45:31 AM -37.6120 145.7080 249° West 164 189 10,300  Level FlightAware ADS-B
Sun 01:46:10 AM -37.6210 145.6730 252° West 162 186 10,300  Level FlightAware ADS-B
Sun 01:46:43 AM -37.6300 145.6410 250° West 174 200 10,300  Level FlightAware ADS-B
Sun 01:47:17 AM -37.6400 145.6060 250° West 187 215 10,300  Level FlightAware ADS-B
Sun 01:47:53 AM -37.6500 145.5690 251° West 200 230 10,300 -86 Level FlightAware ADS-B
Sun 01:48:27 AM -37.6610 145.5300 250° West 206 237 10,200 -367 Descending FlightAware ADS-B
Sun 01:48:42 AM -37.6660 145.5120 251° West 212 244 10,000 -1,029 Descending FlightAware ADS-B
Sun 01:49:02 AM -37.6720 145.4890 252° West 213 245 9,600 -1,171 Descending FlightAware ADS-B
Sun 01:49:23 AM -37.6790 145.4660 249° West 215 247 9,200 -1,167 Descending FlightAware ADS-B
Sun 01:49:38 AM -37.6840 145.4480 251° West 215 247 8,900 -1,235 Descending FlightAware ADS-B
Sun 01:49:57 AM -37.6900 145.4240 252° West 213 245 8,500 -1,050 Descending FlightAware ADS-B
Sun 01:50:18 AM -37.6980 145.4010 246° West 215 247 8,200 -1,080 Descending FlightAware ADS-B
Sun 01:50:47 AM -37.7120 145.3680 242° Southwest 215 247 7,600 -1,102 Descending FlightAware ADS-B
Sun 01:51:07 AM -37.7210 145.3460 243° Southwest 216 249 7,300 -1,043 Descending FlightAware ADS-B
Sun 01:51:33 AM -37.7320 145.3180 244° Southwest 208 239 6,800 -913 Descending FlightAware ADS-B
Sun 01:51:53 AM -37.7410 145.2970 242° Southwest 199 229 6,600 -828 Descending FlightAware ADS-B
Sun 01:52:02 AM -37.7450 145.2870 243° Southwest 200 230 6,400 -1,029 Descending FlightAware ADS-B
Sun 01:52:28 AM -37.7560 145.2620 241° Southwest 195 224 6,000 -913 Descending FlightAware ADS-B
Sun 01:52:48 AM -37.7650 145.2410 242° Southwest 195 224 5,700 -1,059 Descending FlightAware ADS-B
Sun 01:53:02 AM -37.7690 145.2270 250° West 197 227 5,400 -1,050 Descending FlightAware ADS-B
Sun 01:53:28 AM -37.7760 145.1970 254° West 203 234 5,000 -1,024 Descending FlightAware ADS-B
Sun 01:53:43 AM -37.7800 145.1790 254° West 204 235 4,700 -1,200 Descending FlightAware ADS-B
Sun 01:54:03 AM -37.7840 145.1560 258° West 198 228 4,300 -1,000 Descending FlightAware ADS-B
Sun 01:54:25 AM -37.7830 145.1340 273° West 200 230 4,000 -882 Descending FlightAware ADS-B
Sun 01:54:37 AM -37.7840 145.1220 264° West 200 230 3,800 -789 Descending FlightAware ADS-B
Sun 01:55:03 AM -37.7860 145.0880 266° West 191 220 3,500 -667 Descending FlightAware ADS-B
Sun 01:55:22 AM -37.7880 145.0660 263° West 184 212 3,300 -828 Descending FlightAware ADS-B
Sun 01:55:32 AM -37.7880 145.0560 270° West 182 209 3,100 -857 Descending FlightAware ADS-B
Sun 01:55:57 AM -37.7910 145.0290 262° West 187 215 2,800 -783 Descending FlightAware ADS-B
Sun 01:56:18 AM -37.7920 145.0080 267° West 185 213 2,500 -774 Descending FlightAware ADS-B
Sun 01:56:28 AM -37.7930 144.9970 263° West 180 207 2,400 -529 Descending FlightAware ADS-B
Sun 01:56:52 AM -37.7930 144.9710 270° West 169 194 2,200 -439 Descending FlightAware ADS-B
Sun 01:57:09 AM -37.7940 144.9560 265° West 154 177 2,100 -679 Descending FlightAware ADS-B
Sun 01:57:45 AM -37.7929 144.9274 265° West 132 152 1,600 -300 Descending Aus ATC (RADAR)
Sun 01:57:49 AM -37.7920 144.9260 265° West 121 139 1,900 250 Climbing FlightAware ADS-B
Sun 01:58:09 AM -37.7890 144.9150 289° West 118 136 1,700 -600 Descending FlightAware ADS-B
Sun 01:58:19 AM -37.7830 144.9090 322° Northwest 122 140 1,600 -600 Descending FlightAware ADS-B
Sun 01:58:39 AM -37.7740 144.9050 341° North 126 145 1,400 -600 Descending FlightAware ADS-B
Sun 01:58:59 AM -37.7610 144.9030 353° North 120 138 1,200 -316 Descending FlightAware ADS-B
Sun 01:59:36 AM -37.7450 144.9020 357° North 118 136 1,100 -348 Descending FlightAware ADS-B
Sun 02:00:08 AM -37.7300 144.9010 357° North 95 109 800 -563 Descending FlightAware ADS-B
Sun 02:02:00 AM -37.7267 144.9000 268° West  Level FlightAware Approximate
Sun 02:03:00 AM -37.7281 144.9019 268° West  Level Estimated
Sun 02:04:00 AM -37.7267 144.9000 268° West  Level FlightAware Approximate
Sun 02:05:00 AM -37.7281 144.9019 268° West  Level Estimated
Sun 02:06:00 AM -37.7267 144.9000 268° West  Level FlightAware Approximate

Login

Don't have an account? Register now (free) for customized features, flight alerts, and more!